Eugene, OR

5:04 PM PDT on September 02, 2014 (GMT -0700)
Corvallis Municipal | Change Station
CLOSE
Current Station
Airport
Location: Corvallis,
Elevation: 246 ft
Nearby Weather Stations

Elev 246 ft 44.50 °N, 123.29 °W | Updated 9 minutes ago

Clear
Clear
79 °F
Feels Like 79 °F
N
16
Wind Variable Wind from WNW
Gusts 22 mph

Today
High -- | Low -- °F
--% Chance of Precip.
Yesterday
High -- | Low -- °F
Precip. -- in
6:36 AM 7:46 PM
First Quarter, 56% visible
Pressure 29.94 in
Visibility -9999.0 miles
Clouds Clear
Dew Point 52 °F
Humidity 39%
Rainfall 0.00 in
Snow Depth Not available.
UV 3 out of 12
Pollen 3.00 out of 12
Ozone Good
PM2.5 Good
Flu Activity Not available.
METAR KCVO 022355Z AUTO 30014G19KT CLR 26/11 A2994 RMK AO1 10260 20210 403000130 57007

More Conditions Fewer Conditions

Pressure 29.94 in
Visibility -9999.0 miles
Clouds Clear
Dew Point 52 °F
Humidity 39%
Rainfall 0.00 in
Snow Depth Not available.
UV 3 out of 12
Pollen 3.00 out of 12
Ozone Good
PM2.5 Good
Flu Activity Not available.
METAR KCVO 022355Z AUTO 30014G19KT CLR 26/11 A2994 RMK AO1 10260 20210 403000130 57007

More Conditions Fewer Conditions

10-Day Weather Forecast

Almanac

Astronomy

Sep. 02, 2014 Rise Set
Actual Time 6:36 AM PDT 7:46 PM PDT
Civil Twilight 6:06 AM PDT 8:15 PM PDT
Nautical Twilight 5:31 AM PDT 8:51 PM PDT
Astronomical Twilight 4:53 AM PDT 9:28 PM PDT
Moon 2:41 PM PDT (9/2) No Moon Set
Length of Visible Light 14h 08m
Length of Day
13h 09m
Tomorrow will be 2m 57s shorter.
First Quarter, 56% of the Moon is Illuminated
Today
First Quarter
Sep 8
Full
Sep 15
Last Quarter
Sep 24
New
Oct 1
First Quarter

Today's Extremes

State Highs State Lows

Community

WunderPhotos

Upload Photos

1,749,803 photos uploaded!

Nearby

Air Quality

  Air Quality AQ Index Pollutant
Yesterday Good
PM2.5
Yesterday Good
OZONE
Current Good
PM2.5
Current Good
OZONE
Tuesday Good
PM2.5
Wednesday Good
PM2.5

Snow Depth

Station Depth Elevation
Holland Meadows 0 in 4900 ft
Roaring River 0 in 4900 ft
Irish Taylor 0 in 5500 ft
Mckenzie 0 in 4800 ft
Santiam Junction 0 in 3750 ft

Earthquake Activity

City Distance Mag. Time & Date
No recent earthquake activity has been reported nearby.
Minimum magnitude displayed is 2.5.

Coastal Water Temperatures

Place Temperature
No Stations Reporting

Nearby Weather Stations